sensor_id;sensor_type;location;lat;lon;timestamp;P1;durP1;ratioP1;P2;durP2;ratioP2
2602;SDS011;1311;47.966;7.958;2023-07-24T00:00:21;9.73;;;7.17;;
2602;SDS011;1311;47.966;7.958;2023-07-24T00:02:48;10.43;;;7.50;;
2602;SDS011;1311;47.966;7.958;2023-07-24T00:05:15;10.00;;;7.50;;
2602;SDS011;1311;47.966;7.958;2023-07-24T00:07:43;9.90;;;7.50;;
2602;SDS011;1311;47.966;7.958;2023-07-24T00:10:09;10.60;;;6.77;;
2602;SDS011;1311;47.966;7.958;2023-07-24T00:12:36;10.33;;;7.17;;
2602;SDS011;1311;47.966;7.958;2023-07-24T00:15:04;8.13;;;6.60;;
2602;SDS011;1311;47.966;7.958;2023-07-24T00:17:31;10.67;;;7.77;;
2602;SDS011;1311;47.966;7.958;2023-07-24T00:19:58;16.17;;;7.60;;
2602;SDS011;1311;47.966;7.958;2023-07-24T00:22:24;8.90;;;6.50;;
2602;SDS011;1311;47.966;7.958;2023-07-24T00:24:52;8.90;;;7.40;;
2602;SDS011;1311;47.966;7.958;2023-07-24T00:27:19;9.57;;;6.80;;
2602;SDS011;1311;47.966;7.958;2023-07-24T00:29:46;8.90;;;6.80;;
2602;SDS011;1311;47.966;7.958;2023-07-24T00:32:13;10.03;;;7.53;;
2602;SDS011;1311;47.966;7.958;2023-07-24T00:34:39;9.50;;;7.47;;
2602;SDS011;1311;47.966;7.958;2023-07-24T00:37:06;12.50;;;7.87;;
2602;SDS011;1311;47.966;7.958;2023-07-24T00:39:33;12.37;;;8.40;;
2602;SDS011;1311;47.966;7.958;2023-07-24T00:42:01;12.03;;;7.83;;
2602;SDS011;1311;47.966;7.958;2023-07-24T00:44:28;10.90;;;7.53;;
2602;SDS011;1311;47.966;7.958;2023-07-24T00:46:55;9.87;;;7.00;;
2602;SDS011;1311;47.966;7.958;2023-07-24T00:49:21;9.80;;;7.30;;
2602;SDS011;1311;47.966;7.958;2023-07-24T00:51:48;9.53;;;7.27;;
2602;SDS011;1311;47.966;7.958;2023-07-24T00:54:16;10.00;;;7.50;;
2602;SDS011;1311;47.966;7.958;2023-07-24T00:56:44;8.87;;;6.93;;
2602;SDS011;1311;47.966;7.958;2023-07-24T00:59:13;9.33;;;7.33;;
2602;SDS011;1311;47.966;7.958;2023-07-24T01:01:40;9.87;;;7.10;;
2602;SDS011;1311;47.966;7.958;2023-07-24T01:04:08;13.00;;;8.37;;
2602;SDS011;1311;47.966;7.958;2023-07-24T01:06:35;11.50;;;7.60;;
2602;SDS011;1311;47.966;7.958;2023-07-24T01:09:02;9.97;;;7.47;;
2602;SDS011;1311;47.966;7.958;2023-07-24T01:11:30;11.93;;;6.90;;
2602;SDS011;1311;47.966;7.958;2023-07-24T01:14:04;11.70;;;8.40;;
2602;SDS011;1311;47.966;7.958;2023-07-24T01:16:38;11.00;;;8.10;;
2602;SDS011;1311;47.966;7.958;2023-07-24T01:19:11;9.80;;;8.00;;
2602;SDS011;1311;47.966;7.958;2023-07-24T01:21:42;9.67;;;7.13;;
2602;SDS011;1311;47.966;7.958;2023-07-24T01:24:19;9.03;;;7.17;;
2602;SDS011;1311;47.966;7.958;2023-07-24T01:26:57;13.80;;;7.10;;
2602;SDS011;1311;47.966;7.958;2023-07-24T01:29:24;9.37;;;7.07;;
2602;SDS011;1311;47.966;7.958;2023-07-24T01:31:51;11.90;;;7.80;;
2602;SDS011;1311;47.966;7.958;2023-07-24T01:34:17;8.83;;;6.40;;
2602;SDS011;1311;47.966;7.958;2023-07-24T01:36:44;8.17;;;6.60;;
2602;SDS011;1311;47.966;7.958;2023-07-24T01:39:11;12.20;;;6.43;;
2602;SDS011;1311;47.966;7.958;2023-07-24T01:41:38;9.43;;;6.70;;
2602;SDS011;1311;47.966;7.958;2023-07-24T01:44:07;8.77;;;6.47;;
2602;SDS011;1311;47.966;7.958;2023-07-24T01:46:33;10.60;;;7.63;;
2602;SDS011;1311;47.966;7.958;2023-07-24T01:49:00;8.67;;;6.23;;
2602;SDS011;1311;47.966;7.958;2023-07-24T01:51:27;9.83;;;6.97;;
2602;SDS011;1311;47.966;7.958;2023-07-24T01:53:54;10.47;;;7.60;;
2602;SDS011;1311;47.966;7.958;2023-07-24T01:56:20;8.70;;;7.00;;
2602;SDS011;1311;47.966;7.958;2023-07-24T01:58:47;12.63;;;6.20;;
2602;SDS011;1311;47.966;7.958;2023-07-24T02:01:15;8.93;;;7.20;;
2602;SDS011;1311;47.966;7.958;2023-07-24T02:03:42;12.10;;;8.10;;
2602;SDS011;1311;47.966;7.958;2023-07-24T02:06:09;9.73;;;6.60;;
2602;SDS011;1311;47.966;7.958;2023-07-24T02:08:35;12.03;;;7.40;;
2602;SDS011;1311;47.966;7.958;2023-07-24T02:11:02;10.03;;;7.30;;
2602;SDS011;1311;47.966;7.958;2023-07-24T02:13:29;8.07;;;6.50;;
2602;SDS011;1311;47.966;7.958;2023-07-24T02:15:56;9.60;;;7.20;;
2602;SDS011;1311;47.966;7.958;2023-07-24T02:18:24;9.03;;;6.93;;
2602;SDS011;1311;47.966;7.958;2023-07-24T02:20:51;8.13;;;6.47;;
2602;SDS011;1311;47.966;7.958;2023-07-24T02:23:17;12.57;;;7.53;;
2602;SDS011;1311;47.966;7.958;2023-07-24T02:25:44;11.43;;;7.50;;
2602;SDS011;1311;47.966;7.958;2023-07-24T02:28:11;8.67;;;5.90;;
2602;SDS011;1311;47.966;7.958;2023-07-24T02:30:38;11.27;;;7.40;;
2602;SDS011;1311;47.966;7.958;2023-07-24T02:33:05;12.90;;;7.40;;
2602;SDS011;1311;47.966;7.958;2023-07-24T02:35:38;11.03;;;6.63;;
2602;SDS011;1311;47.966;7.958;2023-07-24T02:38:06;10.70;;;6.60;;
2602;SDS011;1311;47.966;7.958;2023-07-24T02:40:33;9.67;;;6.93;;
2602;SDS011;1311;47.966;7.958;2023-07-24T02:42:59;8.20;;;6.67;;
2602;SDS011;1311;47.966;7.958;2023-07-24T02:45:26;8.63;;;6.50;;
2602;SDS011;1311;47.966;7.958;2023-07-24T02:47:53;10.30;;;7.63;;
2602;SDS011;1311;47.966;7.958;2023-07-24T02:50:20;12.60;;;7.87;;
2602;SDS011;1311;47.966;7.958;2023-07-24T02:52:48;9.63;;;7.37;;
2602;SDS011;1311;47.966;7.958;2023-07-24T02:55:14;11.70;;;7.20;;
2602;SDS011;1311;47.966;7.958;2023-07-24T02:57:41;12.30;;;7.07;;
2602;SDS011;1311;47.966;7.958;2023-07-24T03:00:08;9.83;;;7.03;;
2602;SDS011;1311;47.966;7.958;2023-07-24T03:02:36;9.33;;;7.20;;
2602;SDS011;1311;47.966;7.958;2023-07-24T03:05:03;10.30;;;7.40;;
2602;SDS011;1311;47.966;7.958;2023-07-24T03:07:31;9.40;;;7.27;;
2602;SDS011;1311;47.966;7.958;2023-07-24T03:09:59;11.63;;;7.13;;
2602;SDS011;1311;47.966;7.958;2023-07-24T03:12:26;9.27;;;6.97;;
2602;SDS011;1311;47.966;7.958;2023-07-24T03:14:52;10.50;;;6.67;;
2602;SDS011;1311;47.966;7.958;2023-07-24T03:17:19;8.70;;;6.97;;
2602;SDS011;1311;47.966;7.958;2023-07-24T03:19:48;8.63;;;6.67;;
2602;SDS011;1311;47.966;7.958;2023-07-24T03:22:15;10.90;;;6.43;;
2602;SDS011;1311;47.966;7.958;2023-07-24T03:24:42;9.63;;;7.70;;
2602;SDS011;1311;47.966;7.958;2023-07-24T03:27:10;9.23;;;6.20;;
2602;SDS011;1311;47.966;7.958;2023-07-24T03:29:37;9.67;;;7.67;;
2602;SDS011;1311;47.966;7.958;2023-07-24T03:32:06;8.37;;;6.67;;
2602;SDS011;1311;47.966;7.958;2023-07-24T03:34:33;10.07;;;6.70;;
2602;SDS011;1311;47.966;7.958;2023-07-24T03:37:00;8.20;;;6.10;;
2602;SDS011;1311;47.966;7.958;2023-07-24T03:39:26;10.33;;;6.63;;
2602;SDS011;1311;47.966;7.958;2023-07-24T03:41:53;11.30;;;7.90;;
2602;SDS011;1311;47.966;7.958;2023-07-24T03:44:21;9.27;;;6.60;;
2602;SDS011;1311;47.966;7.958;2023-07-24T03:46:48;10.63;;;7.27;;
2602;SDS011;1311;47.966;7.958;2023-07-24T03:49:15;9.67;;;6.93;;
2602;SDS011;1311;47.966;7.958;2023-07-24T03:51:41;9.40;;;6.63;;
2602;SDS011;1311;47.966;7.958;2023-07-24T03:54:08;8.70;;;6.30;;
2602;SDS011;1311;47.966;7.958;2023-07-24T03:56:35;8.67;;;7.00;;
2602;SDS011;1311;47.966;7.958;2023-07-24T03:59:02;8.03;;;6.33;;
2602;SDS011;1311;47.966;7.958;2023-07-24T04:01:30;8.00;;;6.73;;
2602;SDS011;1311;47.966;7.958;2023-07-24T04:03:57;8.47;;;6.10;;
2602;SDS011;1311;47.966;7.958;2023-07-24T04:06:24;8.83;;;6.20;;
2602;SDS011;1311;47.966;7.958;2023-07-24T04:08:51;11.07;;;6.90;;
2602;SDS011;1311;47.966;7.958;2023-07-24T04:11:24;12.50;;;7.13;;
2602;SDS011;1311;47.966;7.958;2023-07-24T04:13:51;7.77;;;6.30;;
2602;SDS011;1311;47.966;7.958;2023-07-24T04:16:18;9.77;;;7.40;;
2602;SDS011;1311;47.966;7.958;2023-07-24T04:18:46;10.50;;;7.10;;
2602;SDS011;1311;47.966;7.958;2023-07-24T04:21:13;10.13;;;6.60;;
2602;SDS011;1311;47.966;7.958;2023-07-24T04:23:39;8.40;;;6.70;;
2602;SDS011;1311;47.966;7.958;2023-07-24T04:26:06;9.43;;;7.03;;
2602;SDS011;1311;47.966;7.958;2023-07-24T04:28:33;9.90;;;7.60;;
2602;SDS011;1311;47.966;7.958;2023-07-24T04:30:59;11.40;;;7.67;;
2602;SDS011;1311;47.966;7.958;2023-07-24T04:33:27;9.83;;;7.40;;
2602;SDS011;1311;47.966;7.958;2023-07-24T04:35:55;10.33;;;7.30;;
2602;SDS011;1311;47.966;7.958;2023-07-24T04:38:22;10.13;;;7.30;;
2602;SDS011;1311;47.966;7.958;2023-07-24T04:40:49;12.17;;;8.83;;
2602;SDS011;1311;47.966;7.958;2023-07-24T04:43:16;9.67;;;7.60;;
2602;SDS011;1311;47.966;7.958;2023-07-24T04:45:42;10.57;;;7.77;;
2602;SDS011;1311;47.966;7.958;2023-07-24T04:48:09;10.40;;;7.63;;
2602;SDS011;1311;47.966;7.958;2023-07-24T04:50:36;8.97;;;7.33;;
2602;SDS011;1311;47.966;7.958;2023-07-24T04:53:04;7.80;;;6.20;;
2602;SDS011;1311;47.966;7.958;2023-07-24T04:55:30;11.37;;;7.83;;
2602;SDS011;1311;47.966;7.958;2023-07-24T04:57:57;9.03;;;7.53;;
2602;SDS011;1311;47.966;7.958;2023-07-24T05:00:24;9.80;;;7.47;;
2602;SDS011;1311;47.966;7.958;2023-07-24T05:02:51;10.70;;;7.67;;
2602;SDS011;1311;47.966;7.958;2023-07-24T05:05:18;10.73;;;7.73;;
2602;SDS011;1311;47.966;7.958;2023-07-24T05:07:45;10.10;;;7.90;;
2602;SDS011;1311;47.966;7.958;2023-07-24T05:10:13;10.30;;;7.63;;
2602;SDS011;1311;47.966;7.958;2023-07-24T05:12:40;8.63;;;6.67;;
2602;SDS011;1311;47.966;7.958;2023-07-24T05:15:07;8.97;;;6.17;;
2602;SDS011;1311;47.966;7.958;2023-07-24T05:17:35;11.50;;;6.57;;
2602;SDS011;1311;47.966;7.958;2023-07-24T05:20:01;8.50;;;5.87;;
2602;SDS011;1311;47.966;7.958;2023-07-24T05:22:28;9.77;;;6.20;;
2602;SDS011;1311;47.966;7.958;2023-07-24T05:24:55;7.73;;;5.60;;
2602;SDS011;1311;47.966;7.958;2023-07-24T05:27:23;8.10;;;6.10;;
2602;SDS011;1311;47.966;7.958;2023-07-24T05:29:50;8.97;;;6.80;;
2602;SDS011;1311;47.966;7.958;2023-07-24T05:32:16;12.43;;;6.10;;
2602;SDS011;1311;47.966;7.958;2023-07-24T05:34:43;8.17;;;6.10;;
2602;SDS011;1311;47.966;7.958;2023-07-24T05:37:10;7.37;;;5.40;;
2602;SDS011;1311;47.966;7.958;2023-07-24T05:39:37;9.47;;;5.90;;
2602;SDS011;1311;47.966;7.958;2023-07-24T05:42:04;7.70;;;5.27;;
2602;SDS011;1311;47.966;7.958;2023-07-24T05:44:32;6.20;;;5.27;;
2602;SDS011;1311;47.966;7.958;2023-07-24T05:47:00;7.07;;;5.30;;
2602;SDS011;1311;47.966;7.958;2023-07-24T05:49:27;9.40;;;5.70;;
2602;SDS011;1311;47.966;7.958;2023-07-24T05:51:54;6.93;;;4.53;;
2602;SDS011;1311;47.966;7.958;2023-07-24T05:54:22;7.03;;;4.73;;
2602;SDS011;1311;47.966;7.958;2023-07-24T05:56:48;5.43;;;4.43;;
2602;SDS011;1311;47.966;7.958;2023-07-24T05:59:15;8.20;;;5.23;;
2602;SDS011;1311;47.966;7.958;2023-07-24T06:01:43;5.90;;;4.87;;
2602;SDS011;1311;47.966;7.958;2023-07-24T06:04:10;5.87;;;4.63;;
2602;SDS011;1311;47.966;7.958;2023-07-24T06:06:36;6.53;;;4.30;;
2602;SDS011;1311;47.966;7.958;2023-07-24T06:09:03;7.67;;;4.67;;
2602;SDS011;1311;47.966;7.958;2023-07-24T06:11:30;6.17;;;4.83;;
2602;SDS011;1311;47.966;7.958;2023-07-24T06:13:57;5.33;;;4.23;;
2602;SDS011;1311;47.966;7.958;2023-07-24T06:16:23;5.57;;;4.47;;
2602;SDS011;1311;47.966;7.958;2023-07-24T06:18:51;6.63;;;4.63;;
2602;SDS011;1311;47.966;7.958;2023-07-24T06:21:18;7.00;;;5.17;;
2602;SDS011;1311;47.966;7.958;2023-07-24T06:23:45;6.27;;;4.60;;
2602;SDS011;1311;47.966;7.958;2023-07-24T06:26:12;5.50;;;4.23;;
2602;SDS011;1311;47.966;7.958;2023-07-24T06:28:39;5.23;;;4.73;;
2602;SDS011;1311;47.966;7.958;2023-07-24T06:31:05;5.40;;;4.20;;
2602;SDS011;1311;47.966;7.958;2023-07-24T06:33:32;5.90;;;4.50;;
2602;SDS011;1311;47.966;7.958;2023-07-24T06:36:00;5.50;;;4.00;;
2602;SDS011;1311;47.966;7.958;2023-07-24T06:38:27;7.70;;;4.10;;
2602;SDS011;1311;47.966;7.958;2023-07-24T06:40:54;4.40;;;3.73;;
2602;SDS011;1311;47.966;7.958;2023-07-24T06:43:20;4.70;;;3.53;;
2602;SDS011;1311;47.966;7.958;2023-07-24T06:45:47;7.23;;;4.40;;
2602;SDS011;1311;47.966;7.958;2023-07-24T06:48:14;6.10;;;4.00;;
2602;SDS011;1311;47.966;7.958;2023-07-24T06:50:41;4.50;;;3.93;;
2602;SDS011;1311;47.966;7.958;2023-07-24T06:53:09;4.47;;;3.40;;
2602;SDS011;1311;47.966;7.958;2023-07-24T06:55:36;5.33;;;3.67;;
2602;SDS011;1311;47.966;7.958;2023-07-24T06:58:02;6.27;;;4.07;;
2602;SDS011;1311;47.966;7.958;2023-07-24T07:00:29;4.67;;;3.63;;
2602;SDS011;1311;47.966;7.958;2023-07-24T07:02:56;5.70;;;3.80;;
2602;SDS011;1311;47.966;7.958;2023-07-24T07:05:22;4.70;;;3.33;;
2602;SDS011;1311;47.966;7.958;2023-07-24T07:07:49;4.60;;;3.27;;
2602;SDS011;1311;47.966;7.958;2023-07-24T07:10:17;4.67;;;3.00;;
2602;SDS011;1311;47.966;7.958;2023-07-24T07:12:44;4.50;;;3.07;;
2602;SDS011;1311;47.966;7.958;2023-07-24T07:15:11;3.70;;;3.00;;
2602;SDS011;1311;47.966;7.958;2023-07-24T07:17:37;5.17;;;3.80;;
2602;SDS011;1311;47.966;7.958;2023-07-24T07:20:05;4.87;;;3.60;;
2602;SDS011;1311;47.966;7.958;2023-07-24T07:22:32;4.50;;;3.63;;
2602;SDS011;1311;47.966;7.958;2023-07-24T07:24:59;6.87;;;4.03;;
2602;SDS011;1311;47.966;7.958;2023-07-24T07:27:27;5.00;;;4.07;;
2602;SDS011;1311;47.966;7.958;2023-07-24T07:29:54;6.90;;;4.53;;
2602;SDS011;1311;47.966;7.958;2023-07-24T07:32:20;5.20;;;4.30;;
2602;SDS011;1311;47.966;7.958;2023-07-24T07:34:47;5.13;;;4.50;;
2602;SDS011;1311;47.966;7.958;2023-07-24T07:37:14;5.13;;;4.63;;
2602;SDS011;1311;47.966;7.958;2023-07-24T07:39:41;5.80;;;4.60;;
2602;SDS011;1311;47.966;7.958;2023-07-24T07:42:07;5.10;;;4.53;;
2602;SDS011;1311;47.966;7.958;2023-07-24T07:44:35;6.23;;;4.73;;
2602;SDS011;1311;47.966;7.958;2023-07-24T07:47:02;6.40;;;4.60;;
2602;SDS011;1311;47.966;7.958;2023-07-24T07:49:31;5.10;;;4.37;;
2602;SDS011;1311;47.966;7.958;2023-07-24T07:51:57;9.60;;;4.67;;
2602;SDS011;1311;47.966;7.958;2023-07-24T07:54:24;5.37;;;4.40;;
2602;SDS011;1311;47.966;7.958;2023-07-24T07:56:51;7.47;;;4.93;;
2602;SDS011;1311;47.966;7.958;2023-07-24T07:59:18;5.20;;;4.67;;
2602;SDS011;1311;47.966;7.958;2023-07-24T08:01:46;6.33;;;4.83;;
2602;SDS011;1311;47.966;7.958;2023-07-24T08:04:12;6.60;;;5.20;;
2602;SDS011;1311;47.966;7.958;2023-07-24T08:06:39;6.70;;;5.50;;
2602;SDS011;1311;47.966;7.958;2023-07-24T08:09:06;8.30;;;5.30;;
2602;SDS011;1311;47.966;7.958;2023-07-24T08:11:32;6.20;;;4.33;;
2602;SDS011;1311;47.966;7.958;2023-07-24T08:13:59;8.20;;;4.50;;
2602;SDS011;1311;47.966;7.958;2023-07-24T08:16:26;5.80;;;4.37;;
2602;SDS011;1311;47.966;7.958;2023-07-24T08:18:54;6.53;;;4.37;;
2602;SDS011;1311;47.966;7.958;2023-07-24T08:21:20;6.17;;;4.60;;
2602;SDS011;1311;47.966;7.958;2023-07-24T08:23:47;5.97;;;4.83;;
2602;SDS011;1311;47.966;7.958;2023-07-24T08:26:14;7.00;;;5.90;;
2602;SDS011;1311;47.966;7.958;2023-07-24T08:28:41;8.00;;;6.00;;
2602;SDS011;1311;47.966;7.958;2023-07-24T08:31:07;8.67;;;5.73;;
2602;SDS011;1311;47.966;7.958;2023-07-24T08:33:35;7.07;;;5.07;;
2602;SDS011;1311;47.966;7.958;2023-07-24T08:36:04;5.03;;;4.40;;
2602;SDS011;1311;47.966;7.958;2023-07-24T08:38:32;6.87;;;4.63;;
2602;SDS011;1311;47.966;7.958;2023-07-24T08:41:02;6.50;;;4.40;;
2602;SDS011;1311;47.966;7.958;2023-07-24T08:43:30;8.20;;;4.90;;
2602;SDS011;1311;47.966;7.958;2023-07-24T08:45:58;6.57;;;5.10;;
2602;SDS011;1311;47.966;7.958;2023-07-24T08:48:26;6.30;;;4.80;;
2602;SDS011;1311;47.966;7.958;2023-07-24T08:50:55;6.20;;;5.03;;
2602;SDS011;1311;47.966;7.958;2023-07-24T08:53:24;9.30;;;5.70;;
2602;SDS011;1311;47.966;7.958;2023-07-24T08:55:52;8.33;;;5.30;;
2602;SDS011;1311;47.966;7.958;2023-07-24T08:58:20;6.60;;;5.30;;
2602;SDS011;1311;47.966;7.958;2023-07-24T09:00:47;11.03;;;6.20;;
2602;SDS011;1311;47.966;7.958;2023-07-24T09:03:14;9.47;;;5.00;;
2602;SDS011;1311;47.966;7.958;2023-07-24T09:05:40;11.87;;;4.90;;
2602;SDS011;1311;47.966;7.958;2023-07-24T09:08:07;8.27;;;4.93;;
2602;SDS011;1311;47.966;7.958;2023-07-24T09:10:35;10.47;;;5.07;;
2602;SDS011;1311;47.966;7.958;2023-07-24T09:13:02;7.07;;;4.97;;
2602;SDS011;1311;47.966;7.958;2023-07-24T09:15:29;11.00;;;5.70;;
2602;SDS011;1311;47.966;7.958;2023-07-24T09:18:06;14.33;;;5.47;;
2602;SDS011;1311;47.966;7.958;2023-07-24T09:20:37;10.10;;;5.67;;
2602;SDS011;1311;47.966;7.958;2023-07-24T09:23:05;12.87;;;6.20;;
2602;SDS011;1311;47.966;7.958;2023-07-24T09:25:32;8.63;;;6.03;;
2602;SDS011;1311;47.966;7.958;2023-07-24T09:28:01;11.23;;;5.60;;
2602;SDS011;1311;47.966;7.958;2023-07-24T09:30:34;5.47;;;3.83;;
2602;SDS011;1311;47.966;7.958;2023-07-24T09:33:01;3.60;;;3.00;;
2602;SDS011;1311;47.966;7.958;2023-07-24T09:35:28;3.97;;;2.70;;
2602;SDS011;1311;47.966;7.958;2023-07-24T09:38:01;4.60;;;3.00;;
2602;SDS011;1311;47.966;7.958;2023-07-24T09:40:36;5.00;;;3.23;;
2602;SDS011;1311;47.966;7.958;2023-07-24T09:43:14;5.03;;;1.97;;
2602;SDS011;1311;47.966;7.958;2023-07-24T09:45:42;3.43;;;2.50;;
2602;SDS011;1311;47.966;7.958;2023-07-24T09:48:09;3.63;;;2.13;;
2602;SDS011;1311;47.966;7.958;2023-07-24T09:50:39;3.77;;;2.97;;
2602;SDS011;1311;47.966;7.958;2023-07-24T09:53:07;3.50;;;2.67;;
2602;SDS011;1311;47.966;7.958;2023-07-24T09:55:42;4.97;;;3.37;;
2602;SDS011;1311;47.966;7.958;2023-07-24T09:58:14;4.87;;;2.40;;
2602;SDS011;1311;47.966;7.958;2023-07-24T10:00:42;4.13;;;2.80;;
2602;SDS011;1311;47.966;7.958;2023-07-24T10:03:09;5.40;;;2.73;;
2602;SDS011;1311;47.966;7.958;2023-07-24T10:05:36;4.37;;;2.70;;
2602;SDS011;1311;47.966;7.958;2023-07-24T10:08:03;4.43;;;2.80;;
2602;SDS011;1311;47.966;7.958;2023-07-24T10:10:31;4.87;;;3.00;;
2602;SDS011;1311;47.966;7.958;2023-07-24T10:12:58;4.17;;;2.80;;
2602;SDS011;1311;47.966;7.958;2023-07-24T10:15:27;2.90;;;2.60;;
2602;SDS011;1311;47.966;7.958;2023-07-24T10:18:01;4.57;;;2.70;;
2602;SDS011;1311;47.966;7.958;2023-07-24T10:20:32;2.50;;;2.23;;
2602;SDS011;1311;47.966;7.958;2023-07-24T10:23:00;1.83;;;1.60;;
2602;SDS011;1311;47.966;7.958;2023-07-24T10:25:28;3.30;;;2.20;;
2602;SDS011;1311;47.966;7.958;2023-07-24T10:28:00;4.97;;;2.47;;
2602;SDS011;1311;47.966;7.958;2023-07-24T10:30:33;2.73;;;2.17;;
2602;SDS011;1311;47.966;7.958;2023-07-24T10:33:03;4.60;;;2.40;;
2602;SDS011;1311;47.966;7.958;2023-07-24T10:35:36;2.87;;;1.57;;
2602;SDS011;1311;47.966;7.958;2023-07-24T10:38:03;3.13;;;2.17;;
2602;SDS011;1311;47.966;7.958;2023-07-24T10:40:30;3.23;;;2.10;;
2602;SDS011;1311;47.966;7.958;2023-07-24T10:42:58;2.30;;;1.83;;
2602;SDS011;1311;47.966;7.958;2023-07-24T10:45:26;2.60;;;1.87;;
2602;SDS011;1311;47.966;7.958;2023-07-24T10:48:05;2.67;;;1.70;;
2602;SDS011;1311;47.966;7.958;2023-07-24T10:50:36;4.87;;;2.60;;
2602;SDS011;1311;47.966;7.958;2023-07-24T10:53:03;8.40;;;2.27;;
2602;SDS011;1311;47.966;7.958;2023-07-24T10:55:30;3.00;;;2.47;;
2602;SDS011;1311;47.966;7.958;2023-07-24T10:57:56;2.73;;;2.43;;
2602;SDS011;1311;47.966;7.958;2023-07-24T11:00:23;2.77;;;2.33;;
2602;SDS011;1311;47.966;7.958;2023-07-24T11:02:52;3.77;;;2.47;;
2602;SDS011;1311;47.966;7.958;2023-07-24T11:05:20;2.70;;;2.37;;
2602;SDS011;1311;47.966;7.958;2023-07-24T11:07:47;3.77;;;2.60;;
2602;SDS011;1311;47.966;7.958;2023-07-24T11:10:15;4.93;;;3.03;;
2602;SDS011;1311;47.966;7.958;2023-07-24T11:12:42;3.43;;;2.30;;
2602;SDS011;1311;47.966;7.958;2023-07-24T11:15:09;3.60;;;2.77;;
2602;SDS011;1311;47.966;7.958;2023-07-24T11:17:36;3.20;;;2.87;;
2602;SDS011;1311;47.966;7.958;2023-07-24T11:20:06;3.20;;;2.80;;
2602;SDS011;1311;47.966;7.958;2023-07-24T11:22:37;3.97;;;2.90;;
2602;SDS011;1311;47.966;7.958;2023-07-24T11:25:05;3.30;;;2.40;;
2602;SDS011;1311;47.966;7.958;2023-07-24T11:27:33;3.03;;;2.40;;
2602;SDS011;1311;47.966;7.958;2023-07-24T11:30:04;2.73;;;2.07;;
2602;SDS011;1311;47.966;7.958;2023-07-24T11:32:31;3.00;;;2.53;;
2602;SDS011;1311;47.966;7.958;2023-07-24T11:34:58;2.53;;;2.10;;
2602;SDS011;1311;47.966;7.958;2023-07-24T11:37:27;2.43;;;2.00;;
2602;SDS011;1311;47.966;7.958;2023-07-24T11:39:57;2.23;;;2.03;;
2602;SDS011;1311;47.966;7.958;2023-07-24T11:42:24;2.27;;;1.80;;
2602;SDS011;1311;47.966;7.958;2023-07-24T11:44:52;2.40;;;2.00;;
2602;SDS011;1311;47.966;7.958;2023-07-24T11:47:19;2.77;;;1.80;;
2602;SDS011;1311;47.966;7.958;2023-07-24T11:49:56;2.40;;;1.97;;
2602;SDS011;1311;47.966;7.958;2023-07-24T11:52:24;2.80;;;2.27;;
2602;SDS011;1311;47.966;7.958;2023-07-24T11:54:58;2.33;;;2.00;;
2602;SDS011;1311;47.966;7.958;2023-07-24T11:57:28;2.30;;;1.90;;
2602;SDS011;1311;47.966;7.958;2023-07-24T11:59:55;2.77;;;2.20;;
2602;SDS011;1311;47.966;7.958;2023-07-24T12:02:23;2.37;;;2.17;;
2602;SDS011;1311;47.966;7.958;2023-07-24T12:04:58;2.40;;;2.07;;
2602;SDS011;1311;47.966;7.958;2023-07-24T12:07:28;2.77;;;2.47;;
2602;SDS011;1311;47.966;7.958;2023-07-24T12:10:01;2.73;;;2.30;;
2602;SDS011;1311;47.966;7.958;2023-07-24T12:12:38;2.10;;;1.90;;
2602;SDS011;1311;47.966;7.958;2023-07-24T12:15:06;2.20;;;2.00;;
2602;SDS011;1311;47.966;7.958;2023-07-24T12:17:33;2.93;;;2.20;;
2602;SDS011;1311;47.966;7.958;2023-07-24T12:20:01;2.20;;;2.00;;
2602;SDS011;1311;47.966;7.958;2023-07-24T12:22:29;3.13;;;2.10;;
2602;SDS011;1311;47.966;7.958;2023-07-24T12:24:56;2.60;;;2.17;;
2602;SDS011;1311;47.966;7.958;2023-07-24T12:27:24;3.30;;;2.40;;
2602;SDS011;1311;47.966;7.958;2023-07-24T12:29:51;2.50;;;1.93;;
2602;SDS011;1311;47.966;7.958;2023-07-24T12:32:17;3.13;;;2.63;;
2602;SDS011;1311;47.966;7.958;2023-07-24T12:34:46;2.20;;;2.00;;
2602;SDS011;1311;47.966;7.958;2023-07-24T12:37:13;3.13;;;2.50;;
2602;SDS011;1311;47.966;7.958;2023-07-24T12:39:39;4.97;;;2.70;;
2602;SDS011;1311;47.966;7.958;2023-07-24T12:42:06;2.63;;;2.10;;
2602;SDS011;1311;47.966;7.958;2023-07-24T12:44:34;3.63;;;2.70;;
2602;SDS011;1311;47.966;7.958;2023-07-24T12:47:03;4.23;;;2.80;;
2602;SDS011;1311;47.966;7.958;2023-07-24T12:49:30;2.80;;;2.50;;
2602;SDS011;1311;47.966;7.958;2023-07-24T12:51:57;4.10;;;2.93;;
2602;SDS011;1311;47.966;7.958;2023-07-24T12:54:23;4.13;;;3.10;;
2602;SDS011;1311;47.966;7.958;2023-07-24T12:56:50;4.70;;;3.90;;
2602;SDS011;1311;47.966;7.958;2023-07-24T12:59:18;3.37;;;3.07;;
2602;SDS011;1311;47.966;7.958;2023-07-24T13:01:46;4.87;;;3.57;;
2602;SDS011;1311;47.966;7.958;2023-07-24T13:04:12;3.97;;;3.03;;
2602;SDS011;1311;47.966;7.958;2023-07-24T13:06:39;3.50;;;2.40;;
2602;SDS011;1311;47.966;7.958;2023-07-24T13:09:07;3.13;;;2.17;;
2602;SDS011;1311;47.966;7.958;2023-07-24T13:11:33;4.27;;;3.70;;
2602;SDS011;1311;47.966;7.958;2023-07-24T13:14:00;5.80;;;3.53;;
2602;SDS011;1311;47.966;7.958;2023-07-24T13:16:27;4.40;;;3.53;;
2602;SDS011;1311;47.966;7.958;2023-07-24T13:18:55;4.63;;;2.80;;
2602;SDS011;1311;47.966;7.958;2023-07-24T13:21:22;3.67;;;2.80;;
2602;SDS011;1311;47.966;7.958;2023-07-24T13:23:49;4.20;;;2.60;;
2602;SDS011;1311;47.966;7.958;2023-07-24T13:26:16;3.13;;;2.80;;
2602;SDS011;1311;47.966;7.958;2023-07-24T13:28:43;4.57;;;3.20;;
2602;SDS011;1311;47.966;7.958;2023-07-24T13:31:11;3.80;;;3.40;;
2602;SDS011;1311;47.966;7.958;2023-07-24T13:33:38;3.67;;;3.00;;
2602;SDS011;1311;47.966;7.958;2023-07-24T13:36:06;5.23;;;3.67;;
2602;SDS011;1311;47.966;7.958;2023-07-24T13:38:33;6.63;;;3.70;;
2602;SDS011;1311;47.966;7.958;2023-07-24T13:41:00;5.40;;;3.53;;
2602;SDS011;1311;47.966;7.958;2023-07-24T13:43:28;5.07;;;3.57;;
2602;SDS011;1311;47.966;7.958;2023-07-24T13:45:55;6.50;;;4.70;;
2602;SDS011;1311;47.966;7.958;2023-07-24T13:48:22;7.27;;;4.80;;
2602;SDS011;1311;47.966;7.958;2023-07-24T13:50:49;5.73;;;4.80;;
2602;SDS011;1311;47.966;7.958;2023-07-24T13:53:17;6.27;;;4.93;;
2602;SDS011;1311;47.966;7.958;2023-07-24T13:55:44;5.40;;;4.10;;
2602;SDS011;1311;47.966;7.958;2023-07-24T13:58:11;5.33;;;4.80;;
2602;SDS011;1311;47.966;7.958;2023-07-24T14:00:38;5.30;;;4.60;;
2602;SDS011;1311;47.966;7.958;2023-07-24T14:03:05;6.23;;;4.50;;
2602;SDS011;1311;47.966;7.958;2023-07-24T14:05:31;5.37;;;4.40;;
2602;SDS011;1311;47.966;7.958;2023-07-24T14:07:59;4.50;;;3.63;;
2602;SDS011;1311;47.966;7.958;2023-07-24T14:10:27;4.80;;;3.90;;
2602;SDS011;1311;47.966;7.958;2023-07-24T14:12:54;4.80;;;3.13;;
2602;SDS011;1311;47.966;7.958;2023-07-24T14:15:21;4.80;;;3.77;;
2602;SDS011;1311;47.966;7.958;2023-07-24T14:17:48;5.13;;;3.60;;
2602;SDS011;1311;47.966;7.958;2023-07-24T14:20:15;5.80;;;4.33;;
2602;SDS011;1311;47.966;7.958;2023-07-24T14:22:42;5.90;;;4.47;;
2602;SDS011;1311;47.966;7.958;2023-07-24T14:25:09;5.43;;;4.50;;
2602;SDS011;1311;47.966;7.958;2023-07-24T14:27:37;5.17;;;4.10;;
2602;SDS011;1311;47.966;7.958;2023-07-24T14:30:05;6.10;;;4.77;;
2602;SDS011;1311;47.966;7.958;2023-07-24T14:32:34;5.10;;;4.50;;
2602;SDS011;1311;47.966;7.958;2023-07-24T14:35:01;7.33;;;4.50;;
2602;SDS011;1311;47.966;7.958;2023-07-24T14:37:28;6.03;;;4.13;;
2602;SDS011;1311;47.966;7.958;2023-07-24T14:39:56;7.33;;;5.67;;
2602;SDS011;1311;47.966;7.958;2023-07-24T14:42:22;4.93;;;3.97;;
2602;SDS011;1311;47.966;7.958;2023-07-24T14:44:50;7.57;;;4.80;;
2602;SDS011;1311;47.966;7.958;2023-07-24T14:47:17;4.93;;;4.20;;
2602;SDS011;1311;47.966;7.958;2023-07-24T14:49:44;5.17;;;4.20;;
2602;SDS011;1311;47.966;7.958;2023-07-24T14:52:11;4.80;;;4.13;;
2602;SDS011;1311;47.966;7.958;2023-07-24T14:54:37;6.40;;;4.07;;
2602;SDS011;1311;47.966;7.958;2023-07-24T14:57:04;6.83;;;5.40;;
2602;SDS011;1311;47.966;7.958;2023-07-24T14:59:31;6.27;;;4.90;;
2602;SDS011;1311;47.966;7.958;2023-07-24T15:01:59;6.50;;;4.67;;
2602;SDS011;1311;47.966;7.958;2023-07-24T15:04:26;5.80;;;5.13;;
2602;SDS011;1311;47.966;7.958;2023-07-24T15:06:53;5.40;;;4.60;;
2602;SDS011;1311;47.966;7.958;2023-07-24T15:09:19;6.10;;;4.43;;
2602;SDS011;1311;47.966;7.958;2023-07-24T15:11:46;5.37;;;4.70;;
2602;SDS011;1311;47.966;7.958;2023-07-24T15:14:13;5.67;;;3.70;;